sensor_id;sensor_type;location;lat;lon;timestamp;P1;durP1;ratioP1;P2;durP2;ratioP2
61254;SDS011;47128;47.530;8.584;2022-08-24T00:00:51;7.05;;;4.93;;
61254;SDS011;47128;47.530;8.584;2022-08-24T00:03:17;6.53;;;5.10;;
61254;SDS011;47128;47.530;8.584;2022-08-24T00:05:42;6.65;;;4.93;;
61254;SDS011;47128;47.530;8.584;2022-08-24T00:08:08;9.52;;;5.43;;
61254;SDS011;47128;47.530;8.584;2022-08-24T00:10:34;7.10;;;5.07;;
61254;SDS011;47128;47.530;8.584;2022-08-24T00:12:59;7.20;;;4.93;;
61254;SDS011;47128;47.530;8.584;2022-08-24T00:15:25;6.93;;;5.50;;
61254;SDS011;47128;47.530;8.584;2022-08-24T00:17:51;9.27;;;5.13;;
61254;SDS011;47128;47.530;8.584;2022-08-24T00:20:16;8.40;;;4.88;;
61254;SDS011;47128;47.530;8.584;2022-08-24T00:22:42;6.93;;;5.03;;
61254;SDS011;47128;47.530;8.584;2022-08-24T00:25:09;6.28;;;5.25;;
61254;SDS011;47128;47.530;8.584;2022-08-24T00:27:36;8.95;;;4.90;;
61254;SDS011;47128;47.530;8.584;2022-08-24T00:30:04;7.88;;;5.40;;
61254;SDS011;47128;47.530;8.584;2022-08-24T00:32:32;7.20;;;5.60;;
61254;SDS011;47128;47.530;8.584;2022-08-24T00:34:58;7.63;;;4.97;;
61254;SDS011;47128;47.530;8.584;2022-08-24T00:37:24;8.02;;;5.32;;
61254;SDS011;47128;47.530;8.584;2022-08-24T00:39:51;7.18;;;5.03;;
61254;SDS011;47128;47.530;8.584;2022-08-24T00:42:16;6.97;;;5.00;;
61254;SDS011;47128;47.530;8.584;2022-08-24T00:44:42;7.47;;;5.55;;
61254;SDS011;47128;47.530;8.584;2022-08-24T00:47:13;9.35;;;5.43;;
61254;SDS011;47128;47.530;8.584;2022-08-24T00:52:21;6.72;;;4.93;;
61254;SDS011;47128;47.530;8.584;2022-08-24T00:54:52;9.73;;;5.90;;
61254;SDS011;47128;47.530;8.584;2022-08-24T00:57:41;8.82;;;5.07;;
61254;SDS011;47128;47.530;8.584;2022-08-24T01:00:10;8.30;;;5.30;;
61254;SDS011;47128;47.530;8.584;2022-08-24T01:02:47;7.75;;;5.97;;
61254;SDS011;47128;47.530;8.584;2022-08-24T01:05:16;6.80;;;5.60;;
61254;SDS011;47128;47.530;8.584;2022-08-24T01:07:41;7.20;;;5.32;;
61254;SDS011;47128;47.530;8.584;2022-08-24T01:10:09;7.55;;;5.40;;
61254;SDS011;47128;47.530;8.584;2022-08-24T01:12:38;8.88;;;5.88;;
61254;SDS011;47128;47.530;8.584;2022-08-24T01:15:07;8.82;;;5.70;;
61254;SDS011;47128;47.530;8.584;2022-08-24T01:17:35;10.52;;;6.38;;
61254;SDS011;47128;47.530;8.584;2022-08-24T01:20:20;11.30;;;5.88;;
61254;SDS011;47128;47.530;8.584;2022-08-24T01:23:07;7.28;;;5.72;;
61254;SDS011;47128;47.530;8.584;2022-08-24T01:25:54;9.27;;;5.68;;
61254;SDS011;47128;47.530;8.584;2022-08-24T01:28:20;7.78;;;5.75;;
61254;SDS011;47128;47.530;8.584;2022-08-24T01:30:46;9.13;;;5.32;;
61254;SDS011;47128;47.530;8.584;2022-08-24T01:33:21;10.98;;;5.82;;
61254;SDS011;47128;47.530;8.584;2022-08-24T01:35:48;7.78;;;5.80;;
61254;SDS011;47128;47.530;8.584;2022-08-24T01:38:18;8.13;;;5.60;;
61254;SDS011;47128;47.530;8.584;2022-08-24T01:40:48;6.70;;;5.95;;
61254;SDS011;47128;47.530;8.584;2022-08-24T01:43:17;8.70;;;5.95;;
61254;SDS011;47128;47.530;8.584;2022-08-24T01:45:42;13.60;;;6.55;;
61254;SDS011;47128;47.530;8.584;2022-08-24T01:48:08;8.00;;;5.80;;
61254;SDS011;47128;47.530;8.584;2022-08-24T01:50:35;7.63;;;5.75;;
61254;SDS011;47128;47.530;8.584;2022-08-24T01:53:02;9.27;;;5.60;;
61254;SDS011;47128;47.530;8.584;2022-08-24T01:55:29;8.18;;;5.55;;
61254;SDS011;47128;47.530;8.584;2022-08-24T01:57:56;9.27;;;5.95;;
61254;SDS011;47128;47.530;8.584;2022-08-24T02:00:22;11.10;;;6.03;;
61254;SDS011;47128;47.530;8.584;2022-08-24T02:02:47;10.20;;;6.15;;
61254;SDS011;47128;47.530;8.584;2022-08-24T02:05:13;9.60;;;6.15;;
61254;SDS011;47128;47.530;8.584;2022-08-24T02:07:40;6.75;;;5.47;;
61254;SDS011;47128;47.530;8.584;2022-08-24T02:10:06;9.07;;;6.07;;
61254;SDS011;47128;47.530;8.584;2022-08-24T02:12:35;10.43;;;6.40;;
61254;SDS011;47128;47.530;8.584;2022-08-24T02:15:03;6.80;;;5.75;;
61254;SDS011;47128;47.530;8.584;2022-08-24T02:17:30;8.88;;;6.18;;
61254;SDS011;47128;47.530;8.584;2022-08-24T02:19:55;8.27;;;6.10;;
61254;SDS011;47128;47.530;8.584;2022-08-24T02:22:21;7.15;;;6.40;;
61254;SDS011;47128;47.530;8.584;2022-08-24T02:24:47;9.77;;;5.57;;
61254;SDS011;47128;47.530;8.584;2022-08-24T02:27:13;11.55;;;5.93;;
61254;SDS011;47128;47.530;8.584;2022-08-24T02:29:41;8.50;;;5.90;;
61254;SDS011;47128;47.530;8.584;2022-08-24T02:32:07;7.90;;;6.47;;
61254;SDS011;47128;47.530;8.584;2022-08-24T02:34:32;9.25;;;6.22;;
61254;SDS011;47128;47.530;8.584;2022-08-24T02:36:58;9.20;;;6.03;;
61254;SDS011;47128;47.530;8.584;2022-08-24T02:39:24;7.93;;;6.63;;
61254;SDS011;47128;47.530;8.584;2022-08-24T02:41:51;8.07;;;6.07;;
61254;SDS011;47128;47.530;8.584;2022-08-24T02:44:17;8.13;;;6.63;;
61254;SDS011;47128;47.530;8.584;2022-08-24T02:46:42;7.78;;;6.05;;
61254;SDS011;47128;47.530;8.584;2022-08-24T02:49:08;7.82;;;6.22;;
61254;SDS011;47128;47.530;8.584;2022-08-24T02:51:34;7.05;;;6.38;;
61254;SDS011;47128;47.530;8.584;2022-08-24T02:54:01;11.68;;;6.22;;
61254;SDS011;47128;47.530;8.584;2022-08-24T02:56:29;8.70;;;6.60;;
61254;SDS011;47128;47.530;8.584;2022-08-24T02:58:56;12.88;;;7.40;;
61254;SDS011;47128;47.530;8.584;2022-08-24T03:01:22;9.48;;;6.80;;
61254;SDS011;47128;47.530;8.584;2022-08-24T03:03:48;9.07;;;6.53;;
61254;SDS011;47128;47.530;8.584;2022-08-24T03:06:13;8.55;;;6.68;;
61254;SDS011;47128;47.530;8.584;2022-08-24T03:08:39;10.88;;;6.53;;
61254;SDS011;47128;47.530;8.584;2022-08-24T03:11:05;9.52;;;6.85;;
61254;SDS011;47128;47.530;8.584;2022-08-24T03:13:32;7.57;;;6.30;;
61254;SDS011;47128;47.530;8.584;2022-08-24T03:15:58;9.63;;;6.82;;
61254;SDS011;47128;47.530;8.584;2022-08-24T03:18:24;8.00;;;6.72;;
61254;SDS011;47128;47.530;8.584;2022-08-24T03:20:51;8.88;;;6.50;;
61254;SDS011;47128;47.530;8.584;2022-08-24T03:23:18;8.05;;;6.53;;
61254;SDS011;47128;47.530;8.584;2022-08-24T03:25:44;8.68;;;6.55;;
61254;SDS011;47128;47.530;8.584;2022-08-24T03:28:10;10.10;;;6.57;;
61254;SDS011;47128;47.530;8.584;2022-08-24T03:30:36;8.98;;;6.75;;
61254;SDS011;47128;47.530;8.584;2022-08-24T03:33:03;9.35;;;7.10;;
61254;SDS011;47128;47.530;8.584;2022-08-24T03:35:30;10.80;;;6.63;;
61254;SDS011;47128;47.530;8.584;2022-08-24T03:37:56;10.27;;;6.50;;
61254;SDS011;47128;47.530;8.584;2022-08-24T03:40:21;7.68;;;6.75;;
61254;SDS011;47128;47.530;8.584;2022-08-24T03:42:48;8.55;;;6.45;;
61254;SDS011;47128;47.530;8.584;2022-08-24T03:45:14;10.23;;;6.80;;
61254;SDS011;47128;47.530;8.584;2022-08-24T03:47:40;10.52;;;6.78;;
61254;SDS011;47128;47.530;8.584;2022-08-24T03:50:05;9.75;;;6.68;;
61254;SDS011;47128;47.530;8.584;2022-08-24T03:52:32;8.30;;;6.88;;
61254;SDS011;47128;47.530;8.584;2022-08-24T03:54:59;9.98;;;6.75;;
61254;SDS011;47128;47.530;8.584;2022-08-24T03:57:26;10.20;;;6.35;;
61254;SDS011;47128;47.530;8.584;2022-08-24T03:59:52;10.48;;;7.18;;
61254;SDS011;47128;47.530;8.584;2022-08-24T04:02:18;10.00;;;6.65;;
61254;SDS011;47128;47.530;8.584;2022-08-24T04:04:44;8.85;;;6.50;;
61254;SDS011;47128;47.530;8.584;2022-08-24T04:07:10;8.85;;;6.70;;
61254;SDS011;47128;47.530;8.584;2022-08-24T04:09:36;8.82;;;6.72;;
61254;SDS011;47128;47.530;8.584;2022-08-24T04:12:01;8.55;;;7.00;;
61254;SDS011;47128;47.530;8.584;2022-08-24T04:14:27;6.82;;;6.15;;
61254;SDS011;47128;47.530;8.584;2022-08-24T04:16:54;7.38;;;6.32;;
61254;SDS011;47128;47.530;8.584;2022-08-24T04:19:20;9.10;;;6.45;;
61254;SDS011;47128;47.530;8.584;2022-08-24T04:21:45;10.77;;;6.20;;
61254;SDS011;47128;47.530;8.584;2022-08-24T04:24:11;9.95;;;6.80;;
61254;SDS011;47128;47.530;8.584;2022-08-24T04:26:38;12.45;;;8.50;;
61254;SDS011;47128;47.530;8.584;2022-08-24T04:29:06;10.02;;;6.63;;
61254;SDS011;47128;47.530;8.584;2022-08-24T04:31:37;9.70;;;6.50;;
61254;SDS011;47128;47.530;8.584;2022-08-24T04:34:05;8.63;;;6.80;;
61254;SDS011;47128;47.530;8.584;2022-08-24T04:36:31;9.40;;;6.93;;
61254;SDS011;47128;47.530;8.584;2022-08-24T04:38:57;10.13;;;7.22;;
61254;SDS011;47128;47.530;8.584;2022-08-24T04:41:23;10.27;;;7.28;;
61254;SDS011;47128;47.530;8.584;2022-08-24T04:43:48;8.63;;;7.15;;
61254;SDS011;47128;47.530;8.584;2022-08-24T04:46:16;8.85;;;6.38;;
61254;SDS011;47128;47.530;8.584;2022-08-24T04:48:43;8.68;;;6.80;;
61254;SDS011;47128;47.530;8.584;2022-08-24T04:51:11;9.77;;;6.55;;
61254;SDS011;47128;47.530;8.584;2022-08-24T04:53:38;9.77;;;7.05;;
61254;SDS011;47128;47.530;8.584;2022-08-24T04:56:10;10.93;;;6.65;;
61254;SDS011;47128;47.530;8.584;2022-08-24T04:58:39;11.88;;;6.68;;
61254;SDS011;47128;47.530;8.584;2022-08-24T05:01:06;7.60;;;6.55;;
61254;SDS011;47128;47.530;8.584;2022-08-24T05:03:37;8.73;;;6.57;;
61254;SDS011;47128;47.530;8.584;2022-08-24T05:06:03;8.85;;;6.65;;
61254;SDS011;47128;47.530;8.584;2022-08-24T05:08:29;8.30;;;6.60;;
61254;SDS011;47128;47.530;8.584;2022-08-24T05:10:56;9.15;;;6.72;;
61254;SDS011;47128;47.530;8.584;2022-08-24T05:13:21;8.50;;;6.80;;
61254;SDS011;47128;47.530;8.584;2022-08-24T05:15:47;9.85;;;6.82;;
61254;SDS011;47128;47.530;8.584;2022-08-24T05:18:14;9.50;;;7.15;;
61254;SDS011;47128;47.530;8.584;2022-08-24T05:20:44;8.45;;;6.50;;
61254;SDS011;47128;47.530;8.584;2022-08-24T05:23:10;9.88;;;6.72;;
61254;SDS011;47128;47.530;8.584;2022-08-24T05:25:36;10.52;;;7.25;;
61254;SDS011;47128;47.530;8.584;2022-08-24T05:28:03;8.70;;;6.47;;
61254;SDS011;47128;47.530;8.584;2022-08-24T05:30:29;9.98;;;6.97;;
61254;SDS011;47128;47.530;8.584;2022-08-24T05:32:55;8.45;;;6.90;;
61254;SDS011;47128;47.530;8.584;2022-08-24T05:35:20;6.55;;;5.90;;
61254;SDS011;47128;47.530;8.584;2022-08-24T05:37:46;7.50;;;5.30;;
61254;SDS011;47128;47.530;8.584;2022-08-24T05:40:13;7.15;;;5.47;;
61254;SDS011;47128;47.530;8.584;2022-08-24T05:42:41;8.02;;;5.60;;
61254;SDS011;47128;47.530;8.584;2022-08-24T05:45:08;10.57;;;5.60;;
61254;SDS011;47128;47.530;8.584;2022-08-24T05:47:34;21.67;;;16.25;;
61254;SDS011;47128;47.530;8.584;2022-08-24T05:50:00;7.05;;;5.20;;
61254;SDS011;47128;47.530;8.584;2022-08-24T05:52:26;5.68;;;4.55;;
61254;SDS011;47128;47.530;8.584;2022-08-24T05:54:54;7.13;;;4.90;;
61254;SDS011;47128;47.530;8.584;2022-08-24T05:57:22;6.82;;;4.20;;
61254;SDS011;47128;47.530;8.584;2022-08-24T05:59:49;8.88;;;5.10;;
61254;SDS011;47128;47.530;8.584;2022-08-24T06:02:17;8.00;;;4.78;;
61254;SDS011;47128;47.530;8.584;2022-08-24T06:04:43;6.35;;;4.38;;
61254;SDS011;47128;47.530;8.584;2022-08-24T06:07:10;6.38;;;4.40;;
61254;SDS011;47128;47.530;8.584;2022-08-24T06:09:37;12.35;;;5.10;;
61254;SDS011;47128;47.530;8.584;2022-08-24T06:12:05;6.13;;;4.80;;
61254;SDS011;47128;47.530;8.584;2022-08-24T06:14:33;6.85;;;5.32;;
61254;SDS011;47128;47.530;8.584;2022-08-24T06:17:06;11.90;;;5.55;;
61254;SDS011;47128;47.530;8.584;2022-08-24T06:19:33;7.93;;;5.55;;
61254;SDS011;47128;47.530;8.584;2022-08-24T06:22:01;8.85;;;5.75;;
61254;SDS011;47128;47.530;8.584;2022-08-24T06:24:27;8.80;;;6.25;;
61254;SDS011;47128;47.530;8.584;2022-08-24T06:27:12;8.60;;;6.15;;
61254;SDS011;47128;47.530;8.584;2022-08-24T06:32:58;12.23;;;6.50;;
61254;SDS011;47128;47.530;8.584;2022-08-24T06:35:28;9.10;;;6.57;;
61254;SDS011;47128;47.530;8.584;2022-08-24T06:37:53;9.15;;;6.65;;
61254;SDS011;47128;47.530;8.584;2022-08-24T06:40:24;9.38;;;6.72;;
61254;SDS011;47128;47.530;8.584;2022-08-24T06:42:55;14.57;;;7.35;;
61254;SDS011;47128;47.530;8.584;2022-08-24T06:45:26;8.77;;;6.30;;
61254;SDS011;47128;47.530;8.584;2022-08-24T06:47:53;9.80;;;7.10;;
61254;SDS011;47128;47.530;8.584;2022-08-24T06:50:32;8.63;;;7.30;;
61254;SDS011;47128;47.530;8.584;2022-08-24T06:53:00;9.23;;;6.63;;
61254;SDS011;47128;47.530;8.584;2022-08-24T06:55:54;10.45;;;6.45;;
61254;SDS011;47128;47.530;8.584;2022-08-24T06:58:25;8.68;;;7.43;;
61254;SDS011;47128;47.530;8.584;2022-08-24T07:00:53;9.45;;;6.90;;
61254;SDS011;47128;47.530;8.584;2022-08-24T07:03:24;10.65;;;6.68;;
61254;SDS011;47128;47.530;8.584;2022-08-24T07:05:52;12.80;;;7.22;;
61254;SDS011;47128;47.530;8.584;2022-08-24T07:08:23;10.75;;;6.93;;
61254;SDS011;47128;47.530;8.584;2022-08-24T07:10:49;12.10;;;6.35;;
61254;SDS011;47128;47.530;8.584;2022-08-24T07:15:45;8.20;;;5.95;;
61254;SDS011;47128;47.530;8.584;2022-08-24T07:18:26;6.43;;;5.70;;
61254;SDS011;47128;47.530;8.584;2022-08-24T07:21:01;8.10;;;5.55;;
61254;SDS011;47128;47.530;8.584;2022-08-24T07:23:35;6.72;;;4.97;;
61254;SDS011;47128;47.530;8.584;2022-08-24T07:28:37;7.47;;;4.88;;
61254;SDS011;47128;47.530;8.584;2022-08-24T07:31:05;5.68;;;4.72;;
61254;SDS011;47128;47.530;8.584;2022-08-24T07:33:34;10.90;;;5.32;;
61254;SDS011;47128;47.530;8.584;2022-08-24T07:36:02;7.85;;;4.72;;
61254;SDS011;47128;47.530;8.584;2022-08-24T07:38:28;6.75;;;4.55;;
61254;SDS011;47128;47.530;8.584;2022-08-24T07:43:27;8.27;;;4.35;;
61254;SDS011;47128;47.530;8.584;2022-08-24T07:45:54;5.47;;;4.38;;
61254;SDS011;47128;47.530;8.584;2022-08-24T07:48:22;5.28;;;4.50;;
61254;SDS011;47128;47.530;8.584;2022-08-24T07:50:49;6.10;;;4.47;;
61254;SDS011;47128;47.530;8.584;2022-08-24T07:53:17;7.80;;;4.68;;
61254;SDS011;47128;47.530;8.584;2022-08-24T07:55:54;8.82;;;5.10;;
61254;SDS011;47128;47.530;8.584;2022-08-24T07:58:30;9.93;;;4.85;;
61254;SDS011;47128;47.530;8.584;2022-08-24T08:00:58;6.88;;;5.20;;
61254;SDS011;47128;47.530;8.584;2022-08-24T08:03:26;8.68;;;4.80;;
61254;SDS011;47128;47.530;8.584;2022-08-24T08:06:00;5.28;;;4.18;;
61254;SDS011;47128;47.530;8.584;2022-08-24T08:08:33;6.57;;;4.20;;
61254;SDS011;47128;47.530;8.584;2022-08-24T08:11:00;4.78;;;4.28;;
61254;SDS011;47128;47.530;8.584;2022-08-24T08:13:31;5.95;;;3.88;;
61254;SDS011;47128;47.530;8.584;2022-08-24T08:15:58;6.60;;;4.03;;
61254;SDS011;47128;47.530;8.584;2022-08-24T08:18:25;6.65;;;4.55;;
61254;SDS011;47128;47.530;8.584;2022-08-24T08:20:52;5.88;;;4.28;;
61254;SDS011;47128;47.530;8.584;2022-08-24T08:26:32;7.88;;;4.00;;
61254;SDS011;47128;47.530;8.584;2022-08-24T08:29:13;7.10;;;4.18;;
61254;SDS011;47128;47.530;8.584;2022-08-24T08:31:40;4.65;;;4.15;;
61254;SDS011;47128;47.530;8.584;2022-08-24T08:34:08;6.70;;;4.20;;
61254;SDS011;47128;47.530;8.584;2022-08-24T08:39:09;5.90;;;3.67;;
61254;SDS011;47128;47.530;8.584;2022-08-24T08:49:34;6.20;;;3.42;;
61254;SDS011;47128;47.530;8.584;2022-08-24T09:01:48;3.38;;;3.08;;
61254;SDS011;47128;47.530;8.584;2022-08-24T09:10:02;3.83;;;3.15;;
61254;SDS011;47128;47.530;8.584;2022-08-24T09:18:43;5.78;;;3.72;;
61254;SDS011;47128;47.530;8.584;2022-08-24T09:24:20;6.63;;;3.00;;
61254;SDS011;47128;47.530;8.584;2022-08-24T09:47:28;4.75;;;2.70;;
61254;SDS011;47128;47.530;8.584;2022-08-24T09:59:20;5.10;;;2.55;;
61254;SDS011;47128;47.530;8.584;2022-08-24T10:05:23;7.50;;;2.83;;
61254;SDS011;47128;47.530;8.584;2022-08-24T10:13:20;3.05;;;2.55;;
61254;SDS011;47128;47.530;8.584;2022-08-24T10:44:48;2.60;;;2.40;;
61254;SDS011;47128;47.530;8.584;2022-08-24T10:47:33;2.80;;;2.30;;
61254;SDS011;47128;47.530;8.584;2022-08-24T10:53:18;2.53;;;2.17;;
61254;SDS011;47128;47.530;8.584;2022-08-24T10:55:57;3.60;;;2.20;;
61254;SDS011;47128;47.530;8.584;2022-08-24T11:01:30;3.35;;;2.33;;
61254;SDS011;47128;47.530;8.584;2022-08-24T11:09:11;2.20;;;1.80;;
61254;SDS011;47128;47.530;8.584;2022-08-24T11:11:43;2.85;;;1.98;;
61254;SDS011;47128;47.530;8.584;2022-08-24T11:14:22;4.72;;;1.90;;
61254;SDS011;47128;47.530;8.584;2022-08-24T11:16:50;3.72;;;1.88;;
61254;SDS011;47128;47.530;8.584;2022-08-24T11:24:22;3.33;;;1.80;;
61254;SDS011;47128;47.530;8.584;2022-08-24T11:27:02;5.53;;;1.77;;
61254;SDS011;47128;47.530;8.584;2022-08-24T11:32:32;3.05;;;2.10;;
61254;SDS011;47128;47.530;8.584;2022-08-24T11:35:06;1.52;;;1.42;;
61254;SDS011;47128;47.530;8.584;2022-08-24T11:37:48;3.10;;;1.80;;
61254;SDS011;47128;47.530;8.584;2022-08-24T11:40:16;2.85;;;1.80;;
61254;SDS011;47128;47.530;8.584;2022-08-24T11:48:56;4.15;;;1.98;;
61254;SDS011;47128;47.530;8.584;2022-08-24T11:57:35;1.45;;;1.20;;
61254;SDS011;47128;47.530;8.584;2022-08-24T12:00:17;3.38;;;1.55;;
61254;SDS011;47128;47.530;8.584;2022-08-24T12:14:55;2.30;;;1.63;;
61254;SDS011;47128;47.530;8.584;2022-08-24T12:18:01;2.70;;;1.60;;
61254;SDS011;47128;47.530;8.584;2022-08-24T12:20:42;3.00;;;1.70;;
61254;SDS011;47128;47.530;8.584;2022-08-24T12:23:23;2.00;;;1.80;;
61254;SDS011;47128;47.530;8.584;2022-08-24T12:25:56;3.42;;;1.80;;
61254;SDS011;47128;47.530;8.584;2022-08-24T12:37:15;1.50;;;1.40;;
61254;SDS011;47128;47.530;8.584;2022-08-24T12:42:46;4.63;;;1.60;;
61254;SDS011;47128;47.530;8.584;2022-08-24T12:45:16;2.15;;;1.40;;
61254;SDS011;47128;47.530;8.584;2022-08-24T13:01:43;2.33;;;1.50;;
61254;SDS011;47128;47.530;8.584;2022-08-24T13:04:14;2.28;;;1.40;;
61254;SDS011;47128;47.530;8.584;2022-08-24T13:06:53;1.88;;;1.55;;
61254;SDS011;47128;47.530;8.584;2022-08-24T13:09:38;2.33;;;1.30;;
61254;SDS011;47128;47.530;8.584;2022-08-24T13:15:19;1.65;;;1.30;;
61254;SDS011;47128;47.530;8.584;2022-08-24T13:17:59;3.33;;;1.58;;
61254;SDS011;47128;47.530;8.584;2022-08-24T13:33:44;2.72;;;1.30;;
61254;SDS011;47128;47.530;8.584;2022-08-24T13:42:41;2.28;;;1.27;;
61254;SDS011;47128;47.530;8.584;2022-08-24T13:53:50;1.40;;;1.30;;
61254;SDS011;47128;47.530;8.584;2022-08-24T14:08:39;2.43;;;1.50;;
61254;SDS011;47128;47.530;8.584;2022-08-24T14:14:09;1.33;;;1.23;;
61254;SDS011;47128;47.530;8.584;2022-08-24T14:16:58;3.78;;;1.52;;
61254;SDS011;47128;47.530;8.584;2022-08-24T14:25:26;2.22;;;1.67;;
61254;SDS011;47128;47.530;8.584;2022-08-24T14:33:02;1.95;;;1.40;;
61254;SDS011;47128;47.530;8.584;2022-08-24T14:38:40;1.80;;;1.30;;
61254;SDS011;47128;47.530;8.584;2022-08-24T14:41:23;3.35;;;1.40;;
61254;SDS011;47128;47.530;8.584;2022-08-24T15:00:46;2.83;;;1.92;;
61254;SDS011;47128;47.530;8.584;2022-08-24T15:08:44;1.58;;;1.35;;
61254;SDS011;47128;47.530;8.584;2022-08-24T15:11:13;2.40;;;1.52;;
61254;SDS011;47128;47.530;8.584;2022-08-24T15:19:12;3.28;;;1.40;;
61254;SDS011;47128;47.530;8.584;2022-08-24T15:24:35;1.80;;;1.60;;
61254;SDS011;47128;47.530;8.584;2022-08-24T15:29:52;3.00;;;1.40;;
61254;SDS011;47128;47.530;8.584;2022-08-24T15:32:22;2.88;;;1.30;;
61254;SDS011;47128;47.530;8.584;2022-08-24T15:34:54;2.17;;;1.50;;
61254;SDS011;47128;47.530;8.584;2022-08-24T15:37:27;2.38;;;1.40;;
61254;SDS011;47128;47.530;8.584;2022-08-24T15:42:21;1.90;;;1.42;;
61254;SDS011;47128;47.530;8.584;2022-08-24T15:44:48;1.90;;;1.35;;
61254;SDS011;47128;47.530;8.584;2022-08-24T15:47:17;2.20;;;1.50;;
61254;SDS011;47128;47.530;8.584;2022-08-24T15:53:05;2.70;;;1.60;;
61254;SDS011;47128;47.530;8.584;2022-08-24T15:55:51;3.28;;;1.42;;
61254;SDS011;47128;47.530;8.584;2022-08-24T15:58:26;2.72;;;1.67;;
61254;SDS011;47128;47.530;8.584;2022-08-24T16:03:56;3.58;;;1.55;;
61254;SDS011;47128;47.530;8.584;2022-08-24T16:06:44;3.97;;;1.52;;
61254;SDS011;47128;47.530;8.584;2022-08-24T16:11:45;2.42;;;1.80;;
61254;SDS011;47128;47.530;8.584;2022-08-24T16:14:25;3.17;;;1.63;;
61254;SDS011;47128;47.530;8.584;2022-08-24T16:16:53;1.80;;;1.70;;
61254;SDS011;47128;47.530;8.584;2022-08-24T16:19:29;2.65;;;1.67;;
61254;SDS011;47128;47.530;8.584;2022-08-24T16:21:59;2.65;;;1.60;;
61254;SDS011;47128;47.530;8.584;2022-08-24T16:24:34;2.72;;;1.92;;
61254;SDS011;47128;47.530;8.584;2022-08-24T16:27:09;4.75;;;1.90;;
61254;SDS011;47128;47.530;8.584;2022-08-24T16:37:25;3.03;;;1.77;;
61254;SDS011;47128;47.530;8.584;2022-08-24T16:39:51;2.38;;;2.05;;
61254;SDS011;47128;47.530;8.584;2022-08-24T16:42:21;2.72;;;1.70;;
61254;SDS011;47128;47.530;8.584;2022-08-24T16:44:53;3.53;;;1.90;;
61254;SDS011;47128;47.530;8.584;2022-08-24T16:47:19;2.88;;;1.85;;
61254;SDS011;47128;47.530;8.584;2022-08-24T16:49:46;4.22;;;2.13;;
61254;SDS011;47128;47.530;8.584;2022-08-24T16:52:15;2.28;;;1.80;;
61254;SDS011;47128;47.530;8.584;2022-08-24T16:54:42;2.10;;;1.90;;
61254;SDS011;47128;47.530;8.584;2022-08-24T16:57:21;2.88;;;1.92;;
61254;SDS011;47128;47.530;8.584;2022-08-24T16:59:49;2.33;;;1.80;;
61254;SDS011;47128;47.530;8.584;2022-08-24T17:02:17;3.75;;;2.33;;
61254;SDS011;47128;47.530;8.584;2022-08-24T17:04:43;3.38;;;2.03;;
61254;SDS011;47128;47.530;8.584;2022-08-24T17:07:10;2.40;;;2.10;;
61254;SDS011;47128;47.530;8.584;2022-08-24T17:09:38;3.00;;;1.90;;
61254;SDS011;47128;47.530;8.584;2022-08-24T17:12:06;4.65;;;2.00;;
61254;SDS011;47128;47.530;8.584;2022-08-24T17:14:33;2.40;;;1.88;;
61254;SDS011;47128;47.530;8.584;2022-08-24T17:17:01;4.97;;;2.28;;
61254;SDS011;47128;47.530;8.584;2022-08-24T17:19:28;3.97;;;1.95;;
61254;SDS011;47128;47.530;8.584;2022-08-24T17:21:55;3.65;;;2.10;;
61254;SDS011;47128;47.530;8.584;2022-08-24T17:24:21;4.05;;;2.30;;
61254;SDS011;47128;47.530;8.584;2022-08-24T17:26:47;3.75;;;2.13;;
61254;SDS011;47128;47.530;8.584;2022-08-24T17:29:16;5.30;;;2.25;;
61254;SDS011;47128;47.530;8.584;2022-08-24T17:31:43;2.65;;;1.80;;
61254;SDS011;47128;47.530;8.584;2022-08-24T17:34:09;2.67;;;1.98;;
61254;SDS011;47128;47.530;8.584;2022-08-24T17:36:35;2.33;;;1.90;;
61254;SDS011;47128;47.530;8.584;2022-08-24T17:39:03;2.42;;;2.03;;
61254;SDS011;47128;47.530;8.584;2022-08-24T17:41:31;3.78;;;2.30;;
61254;SDS011;47128;47.530;8.584;2022-08-24T17:43:57;5.03;;;2.30;;
61254;SDS011;47128;47.530;8.584;2022-08-24T17:46:22;3.40;;;2.20;;
61254;SDS011;47128;47.530;8.584;2022-08-24T17:48:48;2.17;;;1.98;;
61254;SDS011;47128;47.530;8.584;2022-08-24T17:51:14;7.20;;;2.42;;
61254;SDS011;47128;47.530;8.584;2022-08-24T17:53:40;4.85;;;2.55;;
61254;SDS011;47128;47.530;8.584;2022-08-24T17:56:06;5.45;;;2.75;;
61254;SDS011;47128;47.530;8.584;2022-08-24T17:58:33;3.70;;;2.50;;
61254;SDS011;47128;47.530;8.584;2022-08-24T18:01:19;5.22;;;3.70;;
61254;SDS011;47128;47.530;8.584;2022-08-24T18:03:45;11.18;;;4.07;;
61254;SDS011;47128;47.530;8.584;2022-08-24T18:06:10;5.65;;;3.42;;
61254;SDS011;47128;47.530;8.584;2022-08-24T18:08:36;3.42;;;2.80;;
61254;SDS011;47128;47.530;8.584;2022-08-24T18:11:02;5.72;;;2.28;;
61254;SDS011;47128;47.530;8.584;2022-08-24T18:13:27;6.03;;;2.60;;
61254;SDS011;47128;47.530;8.584;2022-08-24T18:15:53;4.85;;;2.85;;
61254;SDS011;47128;47.530;8.584;2022-08-24T18:18:19;2.35;;;2.15;;
61254;SDS011;47128;47.530;8.584;2022-08-24T18:20:44;5.00;;;3.08;;
61254;SDS011;47128;47.530;8.584;2022-08-24T18:23:10;4.32;;;2.85;;
61254;SDS011;47128;47.530;8.584;2022-08-24T18:25:36;3.33;;;2.35;;
61254;SDS011;47128;47.530;8.584;2022-08-24T18:28:07;3.35;;;2.50;;
61254;SDS011;47128;47.530;8.584;2022-08-24T18:30:33;3.03;;;2.40;;
61254;SDS011;47128;47.530;8.584;2022-08-24T18:32:58;3.35;;;2.33;;
61254;SDS011;47128;47.530;8.584;2022-08-24T18:35:25;3.35;;;2.70;;
61254;SDS011;47128;47.530;8.584;2022-08-24T18:37:52;5.25;;;3.03;;
61254;SDS011;47128;47.530;8.584;2022-08-24T18:40:18;3.28;;;2.78;;
61254;SDS011;47128;47.530;8.584;2022-08-24T18:42:44;3.70;;;2.65;;
61254;SDS011;47128;47.530;8.584;2022-08-24T18:45:12;4.72;;;3.05;;
61254;SDS011;47128;47.530;8.584;2022-08-24T18:47:38;5.57;;;3.05;;
61254;SDS011;47128;47.530;8.584;2022-08-24T18:50:04;6.97;;;2.83;;
61254;SDS011;47128;47.530;8.584;2022-08-24T18:52:31;3.45;;;2.70;;
61254;SDS011;47128;47.530;8.584;2022-08-24T18:54:57;5.55;;;2.80;;
61254;SDS011;47128;47.530;8.584;2022-08-24T18:57:22;3.22;;;2.92;;
61254;SDS011;47128;47.530;8.584;2022-08-24T18:59:48;2.80;;;2.60;;
61254;SDS011;47128;47.530;8.584;2022-08-24T19:02:18;4.28;;;2.90;;
61254;SDS011;47128;47.530;8.584;2022-08-24T19:04:56;5.22;;;2.83;;
61254;SDS011;47128;47.530;8.584;2022-08-24T19:07:23;7.88;;;4.93;;
61254;SDS011;47128;47.530;8.584;2022-08-24T19:09:50;6.82;;;3.95;;
61254;SDS011;47128;47.530;8.584;2022-08-24T19:12:16;6.43;;;3.28;;
61254;SDS011;47128;47.530;8.584;2022-08-24T19:14:42;4.50;;;3.08;;
61254;SDS011;47128;47.530;8.584;2022-08-24T19:17:08;5.90;;;3.65;;
61254;SDS011;47128;47.530;8.584;2022-08-24T19:19:34;3.83;;;3.20;;
61254;SDS011;47128;47.530;8.584;2022-08-24T19:22:00;5.55;;;3.22;;
61254;SDS011;47128;47.530;8.584;2022-08-24T19:24:27;5.07;;;3.20;;
61254;SDS011;47128;47.530;8.584;2022-08-24T19:26:55;6.47;;;3.55;;
61254;SDS011;47128;47.530;8.584;2022-08-24T19:29:21;6.13;;;3.17;;
61254;SDS011;47128;47.530;8.584;2022-08-24T19:31:46;6.55;;;3.65;;
61254;SDS011;47128;47.530;8.584;2022-08-24T19:34:12;4.68;;;3.10;;
61254;SDS011;47128;47.530;8.584;2022-08-24T19:36:39;6.32;;;3.55;;
61254;SDS011;47128;47.530;8.584;2022-08-24T19:39:05;3.58;;;3.05;;
61254;SDS011;47128;47.530;8.584;2022-08-24T19:41:32;6.57;;;3.40;;
61254;SDS011;47128;47.530;8.584;2022-08-24T19:44:00;4.68;;;3.25;;
61254;SDS011;47128;47.530;8.584;2022-08-24T19:46:46;4.78;;;3.85;;
61254;SDS011;47128;47.530;8.584;2022-08-24T19:49:12;4.88;;;3.80;;
61254;SDS011;47128;47.530;8.584;2022-08-24T19:51:40;7.05;;;3.33;;
61254;SDS011;47128;47.530;8.584;2022-08-24T19:54:06;6.93;;;3.92;;
61254;SDS011;47128;47.530;8.584;2022-08-24T19:56:32;4.90;;;3.45;;
61254;SDS011;47128;47.530;8.584;2022-08-24T19:58:59;9.10;;;4.82;;